»·PEaware :: N1128 KSAN-KLAS

N1128 :: KSAN-KLAS

FLIGHT INFORMATION

Flight Status: Arrived
Operator: Privately registered:
United States
More flights under this callsign
Pilot: Siddique N. (20419)
Aircraft: Unknown
(BT7)
More flights by this aircraft type
Origin: KSAN San Diego Intl-Lindbergh
United States
Destination: KLAS McCarran Intl
United States
More flights between these airports :: More routes between these airports
Route: +PADRZ2 CHKNN SEBBY YELAH MISEN KEPEC6
File this flight plan on PilotEdge
Remarks:
Altitude:
(Current/Filed)
29,000ft
Speed:
(Current/Filed)
350kts
Departed: 12-Sep-20 09:12 AM
Arrived: 12-Sep-20 09:59 AM
Distance/Time
Traveled:
224nm/0:46
Distance/Time
To Go:
Arrived

Flight Plot

Page will automatically refresh every two minutes.

Flight plan parsing failed; only flown route is shown


Map Options




Map Legend


Flown Route
Filed Route
Departure Airport
Arrival Airport
Navaid (VOR, NDB)
Fix

Horizontal Profiles

Position Reports

Time Latitude Longitude Heading Altitude Ground
Speed
12-Sep-20 08:55 32.731554 -117.191338 66 22ft 0kts
12-Sep-20 08:56 32.731554 -117.191338 66 22ft 0kts
12-Sep-20 08:57 32.731554 -117.191338 66 22ft 0kts
12-Sep-20 08:58 32.731554 -117.191338 66 22ft 0kts
12-Sep-20 08:59 32.731554 -117.191338 66 22ft 0kts
12-Sep-20 09:00 32.731554 -117.191338 66 22ft 0kts
12-Sep-20 09:01 32.731554 -117.191338 66 22ft 0kts
12-Sep-20 09:02 32.731554 -117.191338 66 22ft 0kts
12-Sep-20 09:03 32.731554 -117.191338 66 22ft 0kts
12-Sep-20 09:04 32.731554 -117.191338 66 22ft 0kts
12-Sep-20 09:05 32.731554 -117.191338 66 22ft 0kts
12-Sep-20 09:06 32.731565 -117.191312 60 22ft 3kts
12-Sep-20 09:07 32.731398 -117.185065 107 22ft 28kts
12-Sep-20 09:08 32.729649 -117.177365 94 22ft 0kts
12-Sep-20 09:09 32.729649 -117.177365 94 22ft 0kts
12-Sep-20 09:10 32.730175 -117.175890 292 22ft 0kts
12-Sep-20 09:11 32.737469 -117.206582 286 563ft 228kts
12-Sep-20 09:12 32.773161 -117.270430 311 2613ft 268kts
12-Sep-20 09:13 32.820249 -117.341985 306 5078ft 256kts
12-Sep-20 09:14 32.867686 -117.414270 306 8409ft 296kts
12-Sep-20 09:15 32.924197 -117.503144 305 10505ft 366kts
12-Sep-20 09:16 32.993276 -117.606402 306 12587ft 409kts
12-Sep-20 09:17 33.062412 -117.716384 309 14622ft 371kts
12-Sep-20 09:18 33.142941 -117.797370 317 17565ft 406kts
12-Sep-20 09:19 33.238617 -117.892317 317 20652ft 478kts
12-Sep-20 09:20 33.349067 -118.003706 316 22893ft 558kts
12-Sep-20 09:21 33.469891 -118.126397 316 25406ft 569kts
12-Sep-20 09:22 33.598562 -118.237860 334 27984ft 571kts
12-Sep-20 09:23 33.751923 -118.293209 3 28957ft 593kts
12-Sep-20 09:24 33.882819 -118.179037 60 28939ft 611kts
12-Sep-20 09:25 33.965592 -117.999147 61 28915ft 612kts
12-Sep-20 09:26 34.060918 -117.824992 53 28956ft 612kts
12-Sep-20 09:27 34.167366 -117.659745 51 28940ft 615kts
12-Sep-20 09:28 34.278298 -117.494173 50 28945ft 616kts
12-Sep-20 09:29 34.390047 -117.333030 49 28914ft 617kts
12-Sep-20 09:30 34.502404 -117.171309 49 29027ft 616kts
12-Sep-20 09:31 34.611258 -117.006776 51 29282ft 604kts
12-Sep-20 09:32 34.711318 -116.852126 51 28879ft 519kts
12-Sep-20 09:33 34.794745 -116.725266 50 28877ft 439kts
12-Sep-20 09:34 34.878787 -116.616874 39 28897ft 441kts
12-Sep-20 09:35 34.975248 -116.520782 36 28833ft 433kts
12-Sep-20 09:36 35.071780 -116.429509 34 26558ft 442kts
12-Sep-20 09:37 35.159272 -116.325330 45 23927ft 412kts
12-Sep-20 09:38 35.234102 -116.227824 44 23082ft 401kts
12-Sep-20 09:39 35.314664 -116.124906 44 21098ft 420kts
12-Sep-20 09:40 35.391973 -116.025238 44 18565ft 390kts
12-Sep-20 09:41 35.465222 -115.932268 43 16036ft 367kts
12-Sep-20 09:42 35.535988 -115.845318 43 13506ft 349kts
12-Sep-20 09:43 35.600595 -115.767173 43 12910ft 301kts
12-Sep-20 09:44 35.659941 -115.695187 43 12920ft 299kts
12-Sep-20 09:45 35.721585 -115.620012 44 12910ft 303kts
12-Sep-20 09:46 35.788630 -115.574312 2 12923ft 275kts
12-Sep-20 09:47 35.867389 -115.566459 0 12882ft 279kts
12-Sep-20 09:48 35.941563 -115.559341 5 12890ft 266kts
12-Sep-20 09:49 35.990009 -115.493292 66 12895ft 286kts
12-Sep-20 09:50 36.021950 -115.401218 69 12559ft 282kts
12-Sep-20 09:51 36.026700 -115.305746 95 10296ft 282kts
12-Sep-20 09:52 36.021896 -115.212329 95 8907ft 245kts
12-Sep-20 09:53 36.025920 -115.131028 73 7872ft 241kts
12-Sep-20 09:54 36.073682 -115.078366 7 5109ft 241kts
12-Sep-20 09:55 36.131910 -115.088456 319 3772ft 174kts
12-Sep-20 09:56 36.126666 -115.135414 221 2881ft 173kts
12-Sep-20 09:57 36.091368 -115.161332 206 2118ft 112kts
12-Sep-20 09:58 36.084139 -115.166161 226 2150ft 0kts
12-Sep-20 09:59 36.084136 -115.166166 226 2150ft 0kts
12-Sep-20 10:00 36.083904 -115.166482 227 2152ft 8kts
12-Sep-20 10:01 36.081368 -115.170008 248 2168ft 15kts

Navigation Log

Ident Type
Flight plan parsing failed, navigation log unavailable